Time;durP1;ratioP1;P1;durP2;ratioP2;P2;SDS_P1;SDS_P2;PMS_P1;PMS_P2;Temp;Humidity;BMP_temperature;BMP_pressure;BME280_temperature;BME280_humidity;BME280_pressure;Samples;Min_cycle;Max_cycle;Signal;HPM_P1;HPM_P2
2023/03/13 05:04:08;;;;;;;0.50;0.43;;;12.50;99.90;;;;;;6178251;23;20450;-86
2023/03/13 05:06:34;;;;;;;1.37;0.53;;;12.50;99.90;;;;;;4971506;28;20516;-70
2023/03/13 05:08:59;;;;;;;0.50;0.40;;;12.50;99.90;;;;;;4972567;28;20436;-69
2023/03/13 05:11:25;;;;;;;0.80;0.50;;;12.50;99.90;;;;;;4974117;28;20502;-69
2023/03/13 05:13:51;;;;;;;1.17;0.63;;;12.50;99.90;;;;;;4973987;28;20175;-69
2023/03/13 05:16:17;;;;;;;0.80;0.80;;;12.60;99.90;;;;;;4974303;28;20455;-70
2023/03/13 05:18:42;;;;;;;3.50;0.60;;;12.60;99.90;;;;;;4974401;28;20177;-70
2023/03/13 05:21:08;;;;;;;2.50;0.90;;;12.60;99.90;;;;;;4974996;28;20201;-70
2023/03/13 05:23:34;;;;;;;0.70;0.70;;;12.60;99.90;;;;;;4973728;28;20265;-70
2023/03/13 05:26:00;;;;;;;0.50;0.50;;;12.60;99.90;;;;;;4974531;28;20963;-69
2023/03/13 05:28:25;;;;;;;0.83;0.83;;;12.50;99.90;;;;;;4974090;28;20185;-69
2023/03/13 05:30:51;;;;;;;0.60;0.60;;;12.50;99.90;;;;;;4972741;28;20179;-70
2023/03/13 05:33:18;;;;;;;0.87;0.60;;;12.50;99.90;;;;;;4973585;28;20229;-71
2023/03/13 05:35:44;;;;;;;0.50;0.50;;;12.50;99.90;;;;;;4973466;28;20456;-69
2023/03/13 05:38:10;;;;;;;0.53;0.53;;;12.50;99.90;;;;;;4974042;28;20433;-70
2023/03/13 05:40:36;;;;;;;0.77;0.60;;;12.50;99.90;;;;;;4974062;28;20421;-70
2023/03/13 05:43:01;;;;;;;1.13;0.70;;;12.50;99.90;;;;;;4974392;28;20419;-71
2023/03/13 05:45:27;;;;;;;0.53;0.50;;;12.50;99.90;;;;;;4973929;28;20200;-70
2023/03/13 05:47:53;;;;;;;0.50;0.50;;;12.50;99.90;;;;;;4972860;28;20209;-69
2023/03/13 05:50:18;;;;;;;0.57;0.57;;;12.50;99.90;;;;;;4974192;28;20688;-70
2023/03/13 05:52:44;;;;;;;0.80;0.80;;;12.50;99.90;;;;;;4972865;28;20210;-70
2023/03/13 05:55:10;;;;;;;1.67;0.67;;;12.50;99.90;;;;;;4973939;28;20202;-69
2023/03/13 05:57:35;;;;;;;0.40;0.40;;;12.50;99.90;;;;;;4974210;28;20232;-70
2023/03/13 06:00:02;;;;;;;0.40;0.40;;;12.50;99.90;;;;;;4972723;28;20182;-70
2023/03/13 06:02:27;;;;;;;2.00;0.80;;;12.50;99.90;;;;;;4971982;28;20177;-71
2023/03/13 06:04:53;;;;;;;0.40;0.40;;;12.50;99.90;;;;;;4971562;28;20583;-71
2023/03/13 06:07:18;;;;;;;0.47;0.47;;;12.50;99.90;;;;;;4972005;28;20179;-70
2023/03/13 06:09:44;;;;;;;0.60;0.60;;;12.60;99.90;;;;;;4972533;28;20242;-70
2023/03/13 06:12:12;;;;;;;0.60;0.60;;;12.50;99.90;;;;;;4972437;28;20173;-70
2023/03/13 06:14:37;;;;;;;0.50;0.50;;;12.60;99.90;;;;;;4974734;28;20198;-71
2023/03/13 06:17:04;;;;;;;0.90;0.90;;;12.60;99.90;;;;;;4975652;28;20454;-70
2023/03/13 06:19:30;;;;;;;0.90;0.70;;;12.60;99.90;;;;;;4976791;28;20254;-70
2023/03/13 06:21:56;;;;;;;0.70;0.70;;;12.70;99.90;;;;;;4959889;28;20506;-70
2023/03/13 06:24:21;;;;;;;0.57;0.57;;;12.80;99.90;;;;;;4976649;28;20203;-70
2023/03/13 06:26:48;;;;;;;0.97;0.60;;;12.80;99.90;;;;;;4976503;28;20185;-71
2023/03/13 06:29:14;;;;;;;0.60;0.60;;;12.80;99.90;;;;;;4976670;28;20187;-71
2023/03/13 06:31:39;;;;;;;1.77;0.67;;;12.90;99.90;;;;;;4977012;28;20772;-69
2023/03/13 06:34:05;;;;;;;0.60;0.50;;;12.90;99.90;;;;;;4975985;28;20211;-69
2023/03/13 06:36:30;;;;;;;0.57;0.53;;;13.00;99.90;;;;;;4976640;28;20261;-69
2023/03/13 06:38:56;;;;;;;0.60;0.37;;;13.10;99.90;;;;;;4976270;28;20175;-70
2023/03/13 06:41:22;;;;;;;0.60;0.60;;;13.20;99.90;;;;;;4977108;28;20171;-70
2023/03/13 06:43:47;;;;;;;0.70;0.70;;;13.20;99.90;;;;;;4976003;28;20183;-70
2023/03/13 06:46:23;;;;;;;0.57;0.57;;;13.30;99.90;;;;;;4972269;28;20267;-67
2023/03/13 06:48:49;;;;;;;1.03;0.93;;;13.40;99.90;;;;;;4957886;28;20593;-68
2023/03/13 06:51:18;;;;;;;3.13;0.70;;;13.50;99.90;;;;;;4957601;29;20412;-71
2023/03/13 06:53:46;;;;;;;0.87;0.50;;;13.60;99.90;;;;;;4968958;28;20458;-70
2023/03/13 06:56:12;;;;;;;0.60;0.50;;;13.70;99.90;;;;;;4976898;28;20457;-71
2023/03/13 06:58:37;;;;;;;0.70;0.60;;;13.70;99.90;;;;;;4971206;28;20434;-69
2023/03/13 07:01:11;;;;;;;0.40;0.40;;;13.80;99.90;;;;;;4973770;28;20797;-70
2023/03/13 07:03:37;;;;;;;3.13;0.70;;;13.80;99.90;;;;;;4966513;28;20322;-69
2023/03/13 07:06:04;;;;;;;0.50;0.50;;;13.80;99.90;;;;;;4957032;28;20432;-70
2023/03/13 07:08:31;;;;;;;0.50;0.40;;;13.70;99.90;;;;;;4956098;29;20532;-70
2023/03/13 07:10:59;;;;;;;0.50;0.50;;;13.70;99.90;;;;;;4957244;28;20412;-69
2023/03/13 07:13:25;;;;;;;0.73;0.40;;;13.70;99.90;;;;;;4956548;28;20411;-69
2023/03/13 07:15:52;;;;;;;0.70;0.70;;;13.60;99.90;;;;;;4956749;28;20477;-70
2023/03/13 07:18:18;;;;;;;0.50;0.50;;;13.60;99.90;;;;;;4968992;28;20828;-71
2023/03/13 07:20:44;;;;;;;0.50;0.50;;;13.70;99.90;;;;;;4976435;28;20809;-70
2023/03/13 07:23:09;;;;;;;0.80;0.60;;;13.70;99.90;;;;;;4974771;28;20423;-70
2023/03/13 07:25:35;;;;;;;0.60;0.50;;;13.70;99.90;;;;;;4976076;28;20202;-70
2023/03/13 07:28:00;;;;;;;0.40;0.40;;;13.80;99.90;;;;;;4976396;28;20178;-70
2023/03/13 07:30:27;;;;;;;0.40;0.40;;;13.80;99.90;;;;;;4976062;28;20684;-70
2023/03/13 07:32:53;;;;;;;1.80;1.50;;;13.80;99.90;;;;;;4975477;28;20185;-70
2023/03/13 07:35:18;;;;;;;1.47;1.37;;;13.80;99.90;;;;;;4975941;28;20501;-70
2023/03/13 07:37:44;;;;;;;2.53;1.00;;;13.80;99.90;;;;;;4976171;28;20266;-69
2023/03/13 07:40:10;;;;;;;0.50;0.50;;;13.80;99.90;;;;;;4975472;28;20629;-70
2023/03/13 07:42:40;;;;;;;1.23;1.00;;;13.80;99.90;;;;;;4990639;28;20574;-70
2023/03/13 07:45:06;;;;;;;0.70;0.70;;;13.80;99.90;;;;;;4974800;28;20480;-70
2023/03/13 07:47:33;;;;;;;1.73;1.10;;;13.80;99.90;;;;;;4975390;28;20769;-70
2023/03/13 07:49:59;;;;;;;0.87;0.87;;;13.80;99.90;;;;;;4973987;28;20478;-70
2023/03/13 07:52:26;;;;;;;0.60;0.60;;;13.80;99.90;;;;;;4975275;28;20427;-69
2023/03/13 07:54:52;;;;;;;0.40;0.40;;;13.90;99.90;;;;;;4973953;28;20203;-71
2023/03/13 07:57:18;;;;;;;1.27;0.60;;;13.90;99.90;;;;;;4974810;28;20467;-70
2023/03/13 07:59:44;;;;;;;0.73;0.73;;;13.90;99.90;;;;;;4975036;28;20415;-70
2023/03/13 08:02:12;;;;;;;0.60;0.60;;;13.90;99.90;;;;;;4974925;28;20180;-70
2023/03/13 08:04:39;;;;;;;1.20;0.83;;;13.90;99.90;;;;;;4974315;28;20262;-69
2023/03/13 08:07:08;;;;;;;0.50;0.50;;;13.90;99.90;;;;;;4975002;28;20407;-70
2023/03/13 08:09:34;;;;;;;0.67;0.67;;;14.00;99.90;;;;;;4974476;28;20905;-69
2023/03/13 08:11:59;;;;;;;2.67;0.77;;;14.00;99.90;;;;;;4975049;28;20473;-72
2023/03/13 08:14:25;;;;;;;12.20;6.40;;;14.10;99.90;;;;;;4974286;28;20250;-69
2023/03/13 08:16:50;;;;;;;3.10;2.30;;;14.20;99.90;;;;;;4974935;28;20200;-70
2023/03/13 08:19:16;;;;;;;0.60;0.60;;;14.30;99.90;;;;;;4974760;28;20688;-70
2023/03/13 08:21:42;;;;;;;0.60;0.60;;;14.40;99.90;;;;;;4974948;28;20176;-70
2023/03/13 08:24:10;;;;;;;0.93;0.70;;;14.50;99.90;;;;;;4973832;28;20278;-69
2023/03/13 08:26:37;;;;;;;0.97;0.50;;;14.70;99.90;;;;;;4974612;28;20592;-69
2023/03/13 08:29:06;;;;;;;0.53;0.50;;;14.90;99.90;;;;;;4974885;28;20428;-69
2023/03/13 08:31:38;;;;;;;1.10;0.60;;;15.20;99.90;;;;;;4973196;28;20420;-70
2023/03/13 08:34:03;;;;;;;1.00;0.60;;;15.40;99.90;;;;;;4972839;28;20906;-70
2023/03/13 08:36:34;;;;;;;0.80;0.47;;;15.60;99.90;;;;;;4974177;28;20466;-69
2023/03/13 08:39:05;;;;;;;3.90;0.73;;;15.80;99.90;;;;;;4969331;28;20178;-69
2023/03/13 08:41:36;;;;;;;0.57;0.57;;;16.00;99.90;;;;;;4970115;28;20428;-70
2023/03/13 08:44:03;;;;;;;0.60;0.60;;;16.10;99.90;;;;;;4972193;28;20439;-70
2023/03/13 08:46:30;;;;;;;0.83;0.60;;;16.30;99.90;;;;;;4974443;28;20426;-69
2023/03/13 08:48:56;;;;;;;1.07;0.80;;;16.50;99.90;;;;;;4972796;28;20436;-69
2023/03/13 08:51:24;;;;;;;0.80;0.80;;;16.70;99.90;;;;;;4974201;28;20495;-70
2023/03/13 08:53:51;;;;;;;0.70;0.70;;;16.90;99.90;;;;;;4974355;28;20245;-69
2023/03/13 08:56:19;;;;;;;1.07;0.73;;;17.00;99.90;;;;;;4973236;28;20872;-70
2023/03/13 08:58:56;;;;;;;0.57;0.57;;;17.00;99.90;;;;;;4973962;28;20422;-69
2023/03/13 09:01:24;;;;;;;1.00;0.90;;;17.00;99.90;;;;;;4974380;28;20745;-69
2023/03/13 09:03:49;;;;;;;1.07;1.07;;;16.90;99.90;;;;;;4973940;28;20447;-68
2023/03/13 09:06:15;;;;;;;1.73;0.93;;;16.80;99.90;;;;;;4974256;28;20463;-70
2023/03/13 09:08:42;;;;;;;3.53;1.83;;;16.80;99.90;;;;;;4974289;28;20616;-70
2023/03/13 09:11:13;;;;;;;1.30;1.23;;;16.80;99.90;;;;;;4974360;28;20417;-69
2023/03/13 09:13:41;;;;;;;2.30;2.10;;;16.80;99.90;;;;;;4973020;28;20910;-70
2023/03/13 09:16:10;;;;;;;0.97;0.87;;;16.80;99.90;;;;;;4974021;28;20577;-70
2023/03/13 09:18:36;;;;;;;0.80;0.60;;;16.70;99.90;;;;;;4972706;28;20425;-70
2023/03/13 09:21:09;;;;;;;1.27;0.90;;;16.70;99.90;;;;;;4974023;28;20425;-69
2023/03/13 09:23:35;;;;;;;0.70;0.70;;;16.70;99.90;;;;;;4973846;28;20769;-69
2023/03/13 09:26:00;;;;;;;2.93;0.80;;;16.80;99.90;;;;;;4974087;28;20411;-70
2023/03/13 09:28:27;;;;;;;5.70;1.13;;;16.80;99.90;;;;;;4973680;28;20272;-69
2023/03/13 09:30:53;;;;;;;0.70;0.70;;;16.90;99.90;;;;;;4974325;28;20188;-69
2023/03/13 09:33:22;;;;;;;2.87;1.53;;;16.90;99.90;;;;;;4973481;28;20729;-69
2023/03/13 09:35:49;;;;;;;0.70;0.70;;;16.90;99.90;;;;;;4973859;28;20463;-70
2023/03/13 09:38:17;;;;;;;1.13;0.83;;;17.10;99.90;;;;;;4973733;28;20412;-69
2023/03/13 09:40:48;;;;;;;1.03;1.00;;;17.40;99.90;;;;;;4973899;28;20758;-69
2023/03/13 09:43:43;;;;;;;0.80;0.80;;;17.60;99.90;;;;;;4973177;28;20435;-70
2023/03/13 09:46:18;;;;;;;0.90;0.90;;;17.70;99.90;;;;;;4973641;28;20423;-70
2023/03/13 09:48:51;;;;;;;0.70;0.70;;;17.70;99.90;;;;;;4975491;28;20403;-69
2023/03/13 09:51:26;;;;;;;0.50;0.50;;;17.60;99.90;;;;;;4977626;28;20724;-69
2023/03/13 09:53:55;;;;;;;0.70;0.60;;;17.60;99.90;;;;;;4977500;28;20556;-69
2023/03/13 09:56:30;;;;;;;1.80;0.90;;;17.60;99.90;;;;;;4977266;28;20463;-71
2023/03/13 09:59:03;;;;;;;0.90;0.67;;;17.60;99.90;;;;;;4977763;28;20486;-72
2023/03/13 10:01:30;;;;;;;3.60;0.83;;;17.70;99.90;;;;;;4976508;28;20778;-70
2023/03/13 10:04:25;;;;;;;0.93;0.80;;;18.00;99.90;;;;;;4976664;28;20498;-70
2023/03/13 10:06:52;;;;;;;3.07;0.80;;;18.60;99.90;;;;;;4977512;28;20862;-70
2023/03/13 10:09:25;;;;;;;0.90;0.90;;;19.10;99.90;;;;;;4977413;28;20407;-70
2023/03/13 10:11:54;;;;;;;27.90;17.80;;;19.50;99.90;;;;;;4976064;28;20470;-70
2023/03/13 10:14:40;;;;;;;2.57;2.30;;;19.70;99.30;;;;;;4976687;28;20438;-69
2023/03/13 10:17:24;;;;;;;1.50;1.40;;;19.90;98.70;;;;;;4976695;28;20960;-71
2023/03/13 10:19:57;;;;;;;0.60;0.60;;;20.00;98.30;;;;;;4977373;28;20405;-69
2023/03/13 10:22:26;;;;;;;0.77;0.70;;;19.90;98.20;;;;;;4977561;28;20409;-70
2023/03/13 10:25:06;;;;;;;2.17;1.23;;;19.80;98.40;;;;;;4976506;28;20423;-69
2023/03/13 10:27:42;;;;;;;1.73;0.90;;;20.10;98.30;;;;;;4977754;28;20420;-69
2023/03/13 10:30:24;;;;;;;1.20;1.10;;;20.50;97.20;;;;;;4977497;28;20780;-70
2023/03/13 10:32:53;;;;;;;0.90;0.90;;;20.90;97.30;;;;;;4977066;28;20443;-70
2023/03/13 10:35:23;;;;;;;3.90;1.00;;;21.30;96.20;;;;;;4977078;28;20432;-69
2023/03/13 10:37:49;;;;;;;0.83;0.83;;;21.50;95.20;;;;;;4977150;28;20482;-68
2023/03/13 10:40:26;;;;;;;1.60;1.23;;;21.70;95.50;;;;;;4976832;28;20415;-69
2023/03/13 10:42:58;;;;;;;2.23;0.77;;;21.80;94.60;;;;;;4976834;28;20176;-69
2023/03/13 10:45:24;;;;;;;1.10;1.00;;;21.80;94.20;;;;;;4976845;28;20598;-70
2023/03/13 10:48:00;;;;;;;1.73;1.33;;;21.60;94.00;;;;;;4970698;28;20476;-69
2023/03/13 10:50:30;;;;;;;1.23;1.13;;;21.40;94.60;;;;;;4957571;28;20181;-70
2023/03/13 10:52:57;;;;;;;1.00;1.00;;;21.30;94.70;;;;;;4975959;28;20418;-70
2023/03/13 10:55:24;;;;;;;0.83;0.83;;;21.00;94.50;;;;;;4976812;28;20482;-70
2023/03/13 10:57:56;;;;;;;1.67;1.00;;;20.40;95.00;;;;;;4991819;28;20993;-70
2023/03/13 11:00:27;;;;;;;1.93;1.30;;;20.00;95.70;;;;;;4976365;28;20770;-70
2023/03/13 11:02:54;;;;;;;1.03;1.03;;;19.80;95.80;;;;;;4976165;28;20412;-69
2023/03/13 11:05:31;;;;;;;1.20;1.10;;;19.80;96.50;;;;;;4976527;28;20813;-69
2023/03/13 11:07:57;;;;;;;1.77;1.67;;;20.10;96.20;;;;;;4976749;28;20407;-69
2023/03/13 11:10:25;;;;;;;1.80;1.00;;;20.70;96.40;;;;;;4976650;28;20463;-69
2023/03/13 11:12:55;;;;;;;1.17;1.17;;;21.20;95.70;;;;;;4976357;28;20180;-68
2023/03/13 11:15:27;;;;;;;1.40;1.30;;;21.90;94.80;;;;;;4976311;28;20418;-69
2023/03/13 11:18:03;;;;;;;1.43;1.33;;;22.40;94.00;;;;;;4976397;28;20444;-69
2023/03/13 11:20:35;;;;;;;1.60;1.50;;;22.50;93.50;;;;;;4976233;28;20397;-70
2023/03/13 11:23:22;;;;;;;1.03;0.87;;;22.40;93.40;;;;;;4975876;28;20801;-69
2023/03/13 11:26:05;;;;;;;1.53;1.43;;;22.10;93.40;;;;;;4976211;28;20418;-70
2023/03/13 11:28:48;;;;;;;2.03;1.30;;;21.90;93.70;;;;;;4976350;28;20370;-70
2023/03/13 11:31:28;;;;;;;1.30;1.20;;;21.70;93.30;;;;;;4976074;28;20399;-70
2023/03/13 11:34:22;;;;;;;1.17;0.97;;;21.50;93.80;;;;;;4956409;28;20401;-70
2023/03/13 11:37:18;;;;;;;1.00;1.00;;;21.50;94.10;;;;;;4956778;28;20456;-70
2023/03/13 11:39:51;;;;;;;1.50;1.40;;;21.50;93.60;;;;;;4958121;28;20914;-69
2023/03/13 11:42:19;;;;;;;3.77;1.20;;;21.40;93.30;;;;;;4975473;28;20390;-69
2023/03/13 11:45:21;;;;;;;1.53;1.20;;;21.20;93.90;;;;;;4975241;28;20867;-70
2023/03/13 11:48:01;;;;;;;1.37;1.37;;;21.00;94.20;;;;;;4983507;28;20841;-68
2023/03/13 11:51:01;;;;;;;1.33;1.10;;;20.90;94.90;;;;;;4975817;28;20399;-71
2023/03/13 11:53:54;;;;;;;1.17;1.17;;;20.90;94.50;;;;;;4974173;28;20459;-70
2023/03/13 11:56:20;;;;;;;2.73;1.90;;;20.80;94.30;;;;;;4975003;28;20992;-69
2023/03/13 11:59:12;;;;;;;5.50;1.70;;;20.80;94.50;;;;;;4975678;28;20504;-69
2023/03/13 12:01:42;;;;;;;3.63;2.40;;;20.80;94.70;;;;;;4975571;28;20419;-68
2023/03/13 12:04:27;;;;;;;1.27;1.13;;;20.70;94.50;;;;;;4975018;28;20974;-69
2023/03/13 12:07:20;;;;;;;1.93;1.80;;;20.50;94.70;;;;;;4975592;28;20416;-70
2023/03/13 12:09:56;;;;;;;1.43;1.33;;;20.40;94.90;;;;;;4975602;28;20400;-70
2023/03/13 12:12:28;;;;;;;1.10;1.10;;;20.50;95.20;;;;;;4974776;28;20442;-72
2023/03/13 12:15:30;;;;;;;1.10;1.00;;;20.50;95.10;;;;;;4975044;28;20941;-69
2023/03/13 12:18:16;;;;;;;2.00;1.40;;;20.70;94.90;;;;;;4974943;28;20398;-69
2023/03/13 12:21:25;;;;;;;0.90;0.90;;;20.80;94.50;;;;;;4975502;28;20400;-69
2023/03/13 12:24:09;;;;;;;1.53;1.40;;;20.90;94.80;;;;;;4983092;28;20433;-69
2023/03/13 12:26:43;;;;;;;0.97;0.97;;;21.00;94.40;;;;;;4975396;28;20412;-69
2023/03/13 12:29:32;;;;;;;4.13;1.23;;;21.00;94.10;;;;;;4975381;28;20824;-69
2023/03/13 12:32:17;;;;;;;1.20;1.17;;;21.00;94.10;;;;;;4974980;28;20400;-70
2023/03/13 12:35:07;;;;;;;1.27;1.17;;;21.00;94.20;;;;;;4958314;28;20472;-69
2023/03/13 12:38:04;;;;;;;2.10;0.90;;;21.00;94.40;;;;;;4970585;28;20460;-70
2023/03/13 12:40:32;;;;;;;1.77;1.67;;;21.10;94.10;;;;;;4955592;28;20397;-69
2023/03/13 12:43:11;;;;;;;1.27;1.17;;;21.10;94.10;;;;;;4955450;28;20400;-70
2023/03/13 12:46:03;;;;;;;2.10;1.10;;;21.00;93.60;;;;;;4955679;28;20799;-68
2023/03/13 12:48:53;;;;;;;0.80;0.80;;;21.00;93.60;;;;;;4968896;28;20425;-68
2023/03/13 12:51:36;;;;;;;1.30;1.20;;;21.00;93.50;;;;;;4974542;28;20397;-69
2023/03/13 12:54:07;;;;;;;4.63;1.93;;;21.00;93.60;;;;;;4974538;28;20858;-69
2023/03/13 12:57:00;;;;;;;1.30;1.20;;;21.20;93.70;;;;;;4974818;28;20454;-70
2023/03/13 12:59:40;;;;;;;2.70;1.70;;;21.20;93.60;;;;;;4974952;28;20746;-69
2023/03/13 13:02:32;;;;;;;1.80;1.70;;;21.30;93.60;;;;;;4974449;28;20502;-70
2023/03/13 13:05:00;;;;;;;1.10;1.10;;;21.40;93.60;;;;;;4974836;28;20455;-69
2023/03/13 13:07:37;;;;;;;1.00;0.87;;;21.40;93.60;;;;;;4974776;28;20393;-70
2023/03/13 13:10:09;;;;;;;1.30;1.20;;;21.50;93.00;;;;;;4989518;28;20960;-68
2023/03/13 13:12:46;;;;;;;1.70;1.60;;;21.40;93.00;;;;;;4974534;28;20385;-69
2023/03/13 13:15:19;;;;;;;1.47;1.33;;;21.40;92.70;;;;;;4974254;28;20420;-69
2023/03/13 13:18:03;;;;;;;2.20;1.43;;;21.40;92.50;;;;;;4974102;28;20448;-70
2023/03/13 13:20:31;;;;;;;1.73;1.63;;;21.50;92.10;;;;;;4974735;28;20771;-70
2023/03/13 13:23:25;;;;;;;2.63;1.83;;;21.50;92.20;;;;;;4976155;28;20435;-71
2023/03/13 13:25:53;;;;;;;1.10;1.10;;;21.60;91.70;;;;;;4977232;28;20441;-69
2023/03/13 13:28:21;;;;;;;1.30;0.87;;;21.70;91.80;;;;;;4978404;28;20414;-69
2023/03/13 13:30:48;;;;;;;1.27;0.97;;;21.80;91.70;;;;;;4978119;28;20490;-69
2023/03/13 13:33:26;;;;;;;1.00;1.00;;;22.00;91.70;;;;;;4977386;28;20940;-70
2023/03/13 13:36:20;;;;;;;1.50;1.40;;;22.10;91.50;;;;;;4978120;28;20489;-69
2023/03/13 13:38:47;;;;;;;1.10;1.10;;;22.10;91.50;;;;;;4980021;28;20415;-70
2023/03/13 13:41:12;;;;;;;0.80;0.80;;;22.10;90.80;;;;;;4977969;28;20758;-67
2023/03/13 13:43:43;;;;;;;1.10;1.00;;;22.10;90.90;;;;;;4977205;28;20411;-70
2023/03/13 13:46:32;;;;;;;1.60;0.90;;;22.00;91.10;;;;;;4978132;28;20197;-69
2023/03/13 13:49:04;;;;;;;0.80;0.80;;;22.00;90.70;;;;;;4958275;28;20415;-70
2023/03/13 13:51:30;;;;;;;2.37;0.63;;;22.10;91.00;;;;;;4958338;28;20506;-68
2023/03/13 13:54:11;;;;;;;2.30;2.20;;;22.00;91.10;;;;;;4958045;28;20424;-68
2023/03/13 13:56:46;;;;;;;2.30;1.33;;;22.00;90.40;;;;;;4958597;28;20550;-69
2023/03/13 13:59:20;;;;;;;0.90;0.90;;;22.00;90.80;;;;;;4971501;28;20525;-69
2023/03/13 14:01:47;;;;;;;1.20;1.10;;;22.00;90.30;;;;;;4976780;28;20446;-69
2023/03/13 14:04:25;;;;;;;1.37;0.77;;;21.90;90.40;;;;;;4977302;28;20768;-68
2023/03/13 14:06:53;;;;;;;2.60;1.20;;;21.80;90.30;;;;;;4977448;28;20415;-68
2023/03/13 14:09:39;;;;;;;3.30;1.23;;;21.80;90.70;;;;;;4977246;28;20417;-62
2023/03/13 14:12:35;;;;;;;1.33;1.00;;;21.80;90.90;;;;;;4977177;28;20417;-65
2023/03/13 14:15:20;;;;;;;1.03;0.90;;;21.90;90.90;;;;;;4976355;28;20443;-64
2023/03/13 14:17:49;;;;;;;1.10;1.00;;;21.90;90.90;;;;;;4976700;28;20486;-63
2023/03/13 14:20:34;;;;;;;2.43;1.10;;;21.90;90.90;;;;;;4977039;28;20415;-65
2023/03/13 14:23:05;;;;;;;1.80;1.70;;;21.90;91.10;;;;;;4988659;28;20426;-64
2023/03/13 14:25:47;;;;;;;1.73;1.00;;;22.00;91.10;;;;;;4969713;28;20449;-65
2023/03/13 14:28:21;;;;;;;1.60;1.00;;;22.10;90.60;;;;;;4976377;28;20514;-66
2023/03/13 14:30:49;;;;;;;0.73;0.73;;;22.00;90.80;;;;;;4990893;28;20423;-64
2023/03/13 14:33:15;;;;;;;0.97;0.70;;;22.10;90.80;;;;;;4975830;28;20738;-62
2023/03/13 14:35:41;;;;;;;1.27;1.17;;;22.10;90.90;;;;;;4975263;28;20481;-62
2023/03/13 14:38:16;;;;;;;2.10;0.93;;;22.10;90.80;;;;;;4975095;28;20425;-63
2023/03/13 14:40:42;;;;;;;1.10;0.90;;;22.20;90.70;;;;;;4975165;28;20419;-62
2023/03/13 14:43:20;;;;;;;0.83;0.83;;;22.30;90.30;;;;;;4975970;28;20400;-65
2023/03/13 14:45:47;;;;;;;1.37;1.07;;;22.20;90.50;;;;;;4975703;28;20188;-71
2023/03/13 14:48:26;;;;;;;1.10;1.00;;;22.20;90.50;;;;;;4975830;28;20437;-70
2023/03/13 14:51:00;;;;;;;1.33;1.07;;;22.20;90.10;;;;;;4971942;28;21026;-69
2023/03/13 14:53:26;;;;;;;0.70;0.70;;;22.20;90.40;;;;;;4966825;28;20500;-70
2023/03/13 14:56:18;;;;;;;0.83;0.80;;;22.20;90.70;;;;;;4970553;28;20448;-70
2023/03/13 14:58:45;;;;;;;1.23;1.10;;;22.10;90.30;;;;;;4975446;28;20466;-70
2023/03/13 15:01:20;;;;;;;1.97;0.90;;;22.10;90.40;;;;;;4975734;28;20422;-69
2023/03/13 15:03:46;;;;;;;1.40;1.20;;;22.10;90.30;;;;;;4975704;28;20553;-68
2023/03/13 15:06:11;;;;;;;0.97;0.97;;;22.10;90.50;;;;;;4976010;28;20859;-69
2023/03/13 15:08:43;;;;;;;0.87;0.70;;;22.10;90.50;;;;;;4976004;28;20245;-70
2023/03/13 15:11:26;;;;;;;0.80;0.80;;;22.10;90.30;;;;;;4976400;28;20184;-70
2023/03/13 15:13:51;;;;;;;0.70;0.70;;;22.00;88.70;;;;;;4973007;28;20427;-69
2023/03/13 15:16:20;;;;;;;1.73;1.43;;;21.90;89.50;;;;;;4976150;28;20455;-70
2023/03/13 15:18:47;;;;;;;0.90;0.90;;;21.80;90.30;;;;;;4975762;28;20578;-69
2023/03/13 15:21:12;;;;;;;1.20;1.20;;;21.80;90.20;;;;;;4974723;28;20898;-68
2023/03/13 15:23:38;;;;;;;1.33;0.90;;;21.80;90.50;;;;;;4975593;28;20418;-70
2023/03/13 15:26:04;;;;;;;0.80;0.80;;;21.70;90.30;;;;;;4975950;28;20211;-69
2023/03/13 15:28:30;;;;;;;0.90;0.90;;;21.70;90.10;;;;;;4974168;28;20462;-69
2023/03/13 15:30:57;;;;;;;1.00;1.00;;;21.70;90.30;;;;;;4974980;28;20435;-70
2023/03/13 15:33:28;;;;;;;0.97;0.80;;;21.70;90.70;;;;;;4975450;28;20414;-69
2023/03/13 15:35:55;;;;;;;0.90;0.90;;;21.60;90.70;;;;;;4990728;28;20462;-68
2023/03/13 15:38:23;;;;;;;1.20;1.10;;;21.60;90.90;;;;;;4975177;28;20482;-70
2023/03/13 15:40:49;;;;;;;0.80;0.80;;;21.60;91.00;;;;;;4974121;28;20826;-69
2023/03/13 15:43:16;;;;;;;1.00;0.80;;;21.60;90.90;;;;;;4974237;28;20432;-68
2023/03/13 15:45:43;;;;;;;0.80;0.80;;;21.60;90.70;;;;;;4973239;28;20506;-69
2023/03/13 15:48:32;;;;;;;1.77;1.37;;;21.60;90.80;;;;;;4974994;28;20415;-71
2023/03/13 15:51:02;;;;;;;0.73;0.73;;;21.50;90.80;;;;;;4975053;28;20830;-70
2023/03/13 15:53:31;;;;;;;1.40;0.80;;;21.50;90.70;;;;;;4989912;28;20428;-69
2023/03/13 15:55:59;;;;;;;0.80;0.80;;;21.40;91.10;;;;;;4975204;28;20466;-69
2023/03/13 15:58:26;;;;;;;0.90;0.90;;;21.50;91.00;;;;;;4974644;28;20435;-69
2023/03/13 16:00:52;;;;;;;0.87;0.87;;;21.50;90.90;;;;;;4974758;28;20430;-69
2023/03/13 16:03:27;;;;;;;0.80;0.80;;;21.60;91.00;;;;;;4974575;28;20490;-68
2023/03/13 16:05:54;;;;;;;0.80;0.80;;;21.60;90.90;;;;;;4974275;28;20461;-69
2023/03/13 16:08:24;;;;;;;1.97;1.10;;;21.70;91.00;;;;;;4974338;28;20419;-69
2023/03/13 16:10:50;;;;;;;2.00;1.17;;;21.70;90.90;;;;;;4975472;28;20481;-70
2023/03/13 16:13:16;;;;;;;1.20;1.20;;;21.70;90.70;;;;;;4973921;28;20522;-69
2023/03/13 16:15:43;;;;;;;1.20;1.10;;;21.70;90.90;;;;;;4974479;28;20439;-69
2023/03/13 16:18:17;;;;;;;1.90;0.80;;;21.70;91.10;;;;;;4974642;28;20400;-70
2023/03/13 16:20:43;;;;;;;1.30;1.20;;;21.60;91.30;;;;;;4971261;28;20402;-64
2023/03/13 16:23:08;;;;;;;1.37;1.27;;;21.50;91.20;;;;;;4973333;28;20905;-65
2023/03/13 16:25:34;;;;;;;0.90;0.90;;;21.50;91.50;;;;;;4974161;28;20255;-65
2023/03/13 16:27:59;;;;;;;1.17;1.10;;;21.40;91.80;;;;;;4989591;28;20275;-65
2023/03/13 16:30:31;;;;;;;1.80;0.70;;;21.30;91.40;;;;;;4973840;28;20180;-66
2023/03/13 16:32:57;;;;;;;1.30;1.20;;;21.30;91.50;;;;;;4972748;28;20204;-63
2023/03/13 16:35:25;;;;;;;2.50;1.20;;;21.20;91.50;;;;;;4973932;28;20447;-65
2023/03/13 16:37:55;;;;;;;1.40;1.27;;;21.10;91.70;;;;;;4974793;28;20483;-66
2023/03/13 16:40:24;;;;;;;1.00;1.00;;;20.90;91.90;;;;;;4975453;28;20389;-65
2023/03/13 16:42:50;;;;;;;0.83;0.83;;;20.80;92.10;;;;;;4974152;28;20423;-67
2023/03/13 16:45:16;;;;;;;0.90;0.90;;;20.60;92.30;;;;;;4989096;28;20450;-64
2023/03/13 16:47:43;;;;;;;3.07;1.40;;;20.50;92.50;;;;;;4970053;28;20583;-67
2023/03/13 16:50:33;;;;;;;1.33;1.23;;;20.30;92.70;;;;;;4974536;28;20435;-66
2023/03/13 16:52:58;;;;;;;1.13;1.03;;;20.20;93.10;;;;;;4974185;28;20763;-65
2023/03/13 16:55:27;;;;;;;2.27;1.13;;;20.10;93.30;;;;;;4974068;28;20459;-65
2023/03/13 16:57:54;;;;;;;1.53;1.10;;;19.90;93.40;;;;;;4973182;28;20218;-65
2023/03/13 17:00:21;;;;;;;3.57;2.20;;;19.80;93.50;;;;;;4974201;28;20423;-65
2023/03/13 17:02:47;;;;;;;3.00;1.53;;;19.70;93.50;;;;;;4973815;28;21021;-65
2023/03/13 17:05:14;;;;;;;1.60;1.50;;;19.70;93.80;;;;;;4973505;28;20539;-65
2023/03/13 17:07:43;;;;;;;2.33;1.30;;;19.60;93.60;;;;;;4973075;28;20615;-65
2023/03/13 17:10:19;;;;;;;0.93;0.93;;;19.50;93.90;;;;;;4974273;28;20423;-66
2023/03/13 17:12:45;;;;;;;1.60;1.07;;;19.50;94.10;;;;;;4974012;28;20477;-65
2023/03/13 17:15:10;;;;;;;1.13;0.93;;;19.40;94.20;;;;;;4973263;28;20980;-66
2023/03/13 17:17:37;;;;;;;1.73;1.30;;;19.30;94.20;;;;;;4973970;28;20455;-66
2023/03/13 17:20:04;;;;;;;0.90;0.90;;;19.20;94.40;;;;;;4973839;28;20239;-65
2023/03/13 17:22:30;;;;;;;1.20;1.10;;;19.20;94.90;;;;;;4973561;28;20430;-66
2023/03/13 17:24:56;;;;;;;1.50;0.90;;;19.10;95.00;;;;;;4973352;28;20451;-65
2023/03/13 17:27:22;;;;;;;0.80;0.70;;;19.10;95.30;;;;;;4974237;28;20211;-66
2023/03/13 17:29:47;;;;;;;1.10;1.10;;;19.10;95.40;;;;;;4973614;28;20172;-67
2023/03/13 17:32:14;;;;;;;1.30;1.10;;;19.00;95.40;;;;;;4974223;28;20407;-68
2023/03/13 17:34:40;;;;;;;1.23;1.10;;;19.00;95.60;;;;;;4973481;28;20196;-70
2023/03/13 17:37:15;;;;;;;3.50;1.97;;;18.90;95.70;;;;;;4972491;28;20677;-72
2023/03/13 17:39:42;;;;;;;1.77;1.67;;;18.80;95.80;;;;;;4973684;28;20430;-70
2023/03/13 17:42:08;;;;;;;1.57;1.47;;;18.70;96.00;;;;;;4973321;28;20423;-71
2023/03/13 17:44:33;;;;;;;1.43;1.33;;;18.60;96.00;;;;;;4973139;28;20449;-67
2023/03/13 17:46:59;;;;;;;1.90;1.30;;;18.60;96.30;;;;;;4973834;28;20187;-70
2023/03/13 17:49:25;;;;;;;1.57;1.40;;;18.50;96.30;;;;;;4974035;28;20195;-69
2023/03/13 17:51:50;;;;;;;1.50;1.40;;;18.40;96.40;;;;;;4974253;28;20185;-69
2023/03/13 17:54:17;;;;;;;2.80;1.70;;;18.40;96.60;;;;;;4973369;28;20200;-70
2023/03/13 17:56:44;;;;;;;1.97;1.77;;;18.40;96.70;;;;;;4988300;28;20211;-70
2023/03/13 17:59:12;;;;;;;2.20;1.93;;;18.40;96.80;;;;;;4973902;28;20432;-70
2023/03/13 18:01:38;;;;;;;1.90;1.80;;;18.30;96.90;;;;;;4974430;28;20407;-68
2023/03/13 18:04:04;;;;;;;1.73;1.37;;;18.20;97.10;;;;;;4969125;28;20459;-70
2023/03/13 18:06:37;;;;;;;1.40;1.30;;;18.10;97.10;;;;;;4969912;28;20278;-69
2023/03/13 18:09:07;;;;;;;2.20;1.73;;;18.10;97.20;;;;;;4972862;28;20441;-71